KBYH/BYH METAR and TAF weather

Enter ICAO airport designator
Station Type Date Time Source
KBYH METAR 2019/02/22 21:50 UTC NOAA

KBYH 222150Z 06007G16KT 5SM -RABR SCT005 BKN080 OVC100 08/07 A3012 RMK LAST


Station Type Date Time Source
KBYH Decoded METAR 2019/02/22 21:50 UTC NOAA

Eaker Air Force Base, AR, United States (KBYH) 35-58N 089-57W
Feb 22, 2019 - 04:50 PM EST / 2019.02.22 2150 UTC
Wind: from the ENE (060 degrees) at 8 MPH (7 KT) gusting to 18 MPH (16 KT):0
Visibility: 5 mile(s):0
Sky conditions: overcast
Weather: light rain, mist
Temperature: 46 F (8 C)
Dew Point: 44 F (7 C)
Relative Humidity: 93%
Pressure (altimeter): 30.12 in. Hg (1019 hPa)
ob: KBYH 222150Z 06007G16KT 5SM -RABR SCT005 BKN080 OVC100 08/07 A3012 RMK LAST
cycle: 22

Station Type Date Time Source
KBYH TAF UTC NOAA

Error!


Example: see airport list